Time;durP1;ratioP1;P1;durP2;ratioP2;P2;SDS_P1;SDS_P2;PMS_P1;PMS_P2;Temp;Humidity;BMP_temperature;BMP_pressure;BME280_temperature;BME280_humidity;BME280_pressure;Samples;Min_cycle;Max_cycle;Signal;HPM_P1;HPM_P2
2021/10/12 00:01:40;;;;;;;32.65;23.35;;;;;;;15.69;55.80;101527.89;1738541;82;21038;-50
2021/10/12 00:04:07;;;;;;;29.75;22.22;;;;;;;15.70;55.82;101520.89;1738511;82;21503;-49
2021/10/12 00:06:34;;;;;;;31.45;22.65;;;;;;;15.71;55.91;101525.22;1735933;82;21039;-50
2021/10/12 00:09:01;;;;;;;31.90;22.10;;;;;;;15.71;56.01;101522.15;1728165;82;21522;-49
2021/10/12 00:11:27;;;;;;;30.75;20.68;;;;;;;15.74;55.99;101517.27;1737998;82;21085;-48
2021/10/12 00:13:54;;;;;;;31.52;21.45;;;;;;;15.75;56.02;101519.83;1738738;82;21026;-49
2021/10/12 00:16:20;;;;;;;30.35;21.27;;;;;;;15.75;56.15;101517.20;1737410;82;21005;-49
2021/10/12 00:18:47;;;;;;;37.83;22.35;;;;;;;15.75;56.32;101519.83;1736138;82;21030;-49
2021/10/12 00:21:14;;;;;;;28.83;21.25;;;;;;;15.76;56.42;101516.32;1737568;82;21563;-49
2021/10/12 00:23:41;;;;;;;34.05;21.00;;;;;;;15.77;56.38;101510.15;1738625;82;20983;-51
2021/10/12 00:26:07;;;;;;;32.33;20.92;;;;;;;15.77;56.35;101504.90;1725587;82;21006;-48
2021/10/12 00:28:35;;;;;;;32.17;21.73;;;;;;;15.79;56.34;101514.03;1731671;82;20983;-49
2021/10/12 00:31:02;;;;;;;31.65;20.70;;;;;;;15.80;56.32;101513.14;1736017;82;21527;-53
2021/10/12 00:33:31;;;;;;;30.82;21.40;;;;;;;15.80;56.33;101512.69;1728862;82;21523;-49
2021/10/12 00:35:58;;;;;;;31.73;21.10;;;;;;;15.84;56.27;101513.45;1728105;82;21535;-49
2021/10/12 00:38:25;;;;;;;34.13;21.55;;;;;;;15.85;56.24;101512.52;1729695;82;20983;-52
2021/10/12 00:40:52;;;;;;;32.35;21.15;;;;;;;15.85;56.20;101506.83;1730379;82;21049;-50
2021/10/12 00:43:25;;;;;;;29.65;21.30;;;;;;;15.86;56.15;101508.56;1730400;82;21566;-50
2021/10/12 00:45:49;;;;;;;31.68;21.20;;;;;;;15.86;56.01;101502.00;1726908;82;21007;-50
2021/10/12 00:48:15;;;;;;;31.55;21.17;;;;;;;15.86;55.87;101496.75;1727400;82;21023;-49
2021/10/12 00:50:42;;;;;;;27.37;20.95;;;;;;;15.86;55.84;101498.06;1727366;82;21475;-50
2021/10/12 00:53:09;;;;;;;27.65;20.60;;;;;;;15.88;55.75;101496.70;1727534;82;20999;-51
2021/10/12 00:55:36;;;;;;;31.40;21.52;;;;;;;15.87;55.73;101498.45;1727792;82;21003;-50
2021/10/12 00:58:02;;;;;;;26.50;20.62;;;;;;;15.87;55.78;101494.52;1728486;82;21505;-50
2021/10/12 01:00:29;;;;;;;27.30;21.10;;;;;;;15.86;55.71;101491.50;1730612;82;20999;-50
2021/10/12 01:02:55;;;;;;;30.27;21.10;;;;;;;15.84;55.66;101490.69;1729988;82;21003;-50
2021/10/12 01:05:22;;;;;;;30.65;20.92;;;;;;;15.83;55.73;101494.66;1727833;82;21510;-50
2021/10/12 01:07:49;;;;;;;29.18;21.95;;;;;;;15.83;55.69;101490.27;1702705;82;21031;-51
2021/10/12 01:10:17;;;;;;;34.53;21.95;;;;;;;15.83;55.62;101493.34;1730110;82;21054;-50
2021/10/12 01:12:44;;;;;;;30.92;22.02;;;;;;;15.83;55.62;101482.84;1730409;82;21109;-50
2021/10/12 01:15:12;;;;;;;32.63;21.90;;;;;;;15.81;55.71;101489.91;1730425;82;21078;-49
2021/10/12 01:17:39;;;;;;;33.70;22.73;;;;;;;15.78;55.75;101492.64;1727527;82;21078;-50
2021/10/12 01:20:09;;;;;;;28.77;20.77;;;;;;;15.76;55.74;101490.08;1722459;82;21019;-50
2021/10/12 01:22:45;;;;;;;32.00;22.17;;;;;;;15.76;55.71;101481.34;1722729;82;21047;-50
2021/10/12 01:25:14;;;;;;;32.30;21.20;;;;;;;15.75;55.74;101481.78;1730429;82;21007;-48
2021/10/12 01:28:46;;;;;;;30.57;21.02;;;;;;;15.74;55.62;101480.53;1730395;82;21018;-50
2021/10/12 01:31:25;;;;;;;34.73;20.25;;;;;;;15.72;55.57;101475.34;1732455;82;20986;-50
2021/10/12 01:33:51;;;;;;;27.48;19.70;;;;;;;15.70;55.61;101469.28;1744148;82;21051;-50
2021/10/12 01:36:18;;;;;;;27.00;19.73;;;;;;;15.71;55.76;101469.67;1736091;82;20998;-49
2021/10/12 01:38:44;;;;;;;26.25;20.62;;;;;;;15.71;55.76;101470.12;1737671;82;21109;-51
2021/10/12 01:41:11;;;;;;;31.37;20.60;;;;;;;15.69;55.73;101463.61;1738453;82;21510;-50
2021/10/12 01:43:38;;;;;;;27.48;19.77;;;;;;;15.68;55.67;101461.91;1738514;82;20988;-48
2021/10/12 01:46:05;;;;;;;29.80;20.23;;;;;;;15.68;55.62;101467.16;1736740;82;21566;-49
2021/10/12 01:48:34;;;;;;;32.20;21.10;;;;;;;15.67;55.44;101463.25;1735799;82;21003;-51
2021/10/12 01:51:01;;;;;;;31.52;22.00;;;;;;;15.65;55.38;101460.69;1734939;82;21551;-49
2021/10/12 01:53:28;;;;;;;37.15;21.77;;;;;;;15.63;55.44;101454.63;1727517;82;21094;-48
2021/10/12 01:55:55;;;;;;;31.40;22.42;;;;;;;15.64;55.35;101448.45;1735671;82;20994;-50
2021/10/12 01:58:22;;;;;;;27.65;20.85;;;;;;;15.61;55.30;101443.33;1735674;82;21494;-49
2021/10/12 02:00:48;;;;;;;34.98;21.02;;;;;;;15.60;55.24;101440.28;1735407;82;21510;-49
2021/10/12 02:03:16;;;;;;;31.15;21.20;;;;;;;15.57;55.20;101436.45;1733086;82;21490;-50
2021/10/12 02:05:43;;;;;;;36.85;21.37;;;;;;;15.56;55.13;101439.14;1738232;82;20987;-49
2021/10/12 02:08:10;;;;;;;34.48;21.75;;;;;;;15.53;55.03;101429.59;1738786;82;21506;-50
2021/10/12 02:10:39;;;;;;;32.20;22.10;;;;;;;15.53;54.80;101428.73;1735843;82;21081;-50
2021/10/12 02:13:05;;;;;;;35.70;22.37;;;;;;;15.50;54.53;101427.05;1737749;82;20998;-50
2021/10/12 02:15:32;;;;;;;33.70;22.67;;;;;;;15.48;54.29;101423.62;1737615;82;21132;-51
2021/10/12 02:17:59;;;;;;;28.70;22.02;;;;;;;15.47;54.21;101427.16;1738602;82;20991;-51
2021/10/12 02:20:26;;;;;;;36.80;23.30;;;;;;;15.44;54.27;101428.55;1736746;82;21003;-49
2021/10/12 02:22:53;;;;;;;36.40;21.27;;;;;;;15.45;54.31;101434.22;1735664;82;21027;-50
2021/10/12 02:25:19;;;;;;;31.77;22.95;;;;;;;15.45;54.22;101434.22;1734941;82;21071;-50
2021/10/12 02:27:46;;;;;;;33.50;21.75;;;;;;;15.44;54.25;101428.11;1735493;82;21494;-50
2021/10/12 02:30:13;;;;;;;32.75;21.70;;;;;;;15.44;54.18;101420.69;1735518;82;21053;-49
2021/10/12 02:32:39;;;;;;;30.45;21.87;;;;;;;15.43;54.18;101413.73;1736802;82;21097;-50
2021/10/12 02:35:07;;;;;;;31.80;21.35;;;;;;;15.38;54.26;101409.91;1738407;82;21491;-50
2021/10/12 02:37:34;;;;;;;33.50;21.93;;;;;;;15.38;54.37;101412.98;1738147;82;21035;-50
2021/10/12 02:40:01;;;;;;;31.10;20.45;;;;;;;15.37;54.46;101409.48;1735130;82;21071;-51
2021/10/12 02:42:28;;;;;;;39.15;23.85;;;;;;;15.37;54.55;101407.34;1737454;82;21086;-50
2021/10/12 02:44:55;;;;;;;32.15;21.55;;;;;;;15.37;54.50;101407.34;1737842;82;21010;-50
2021/10/12 02:47:22;;;;;;;28.95;20.77;;;;;;;15.38;54.44;101397.24;1736311;82;21483;-50
2021/10/12 02:49:49;;;;;;;29.85;21.10;;;;;;;15.38;54.51;101398.55;1725058;82;21046;-49
2021/10/12 02:52:15;;;;;;;29.15;20.12;;;;;;;15.37;54.61;101394.23;1736856;82;21531;-49
2021/10/12 02:54:42;;;;;;;26.55;19.05;;;;;;;15.37;54.72;101391.61;1737400;82;20998;-49
2021/10/12 02:57:08;;;;;;;32.42;21.65;;;;;;;15.36;54.85;101389.87;1738468;82;21038;-49
2021/10/12 02:59:35;;;;;;;31.02;20.60;;;;;;;15.37;55.00;101378.50;1738251;82;21468;-49
2021/10/12 03:02:02;;;;;;;33.75;19.90;;;;;;;15.35;55.14;101386.87;1736079;82;21027;-48
2021/10/12 03:04:29;;;;;;;30.27;19.85;;;;;;;15.37;55.22;101392.92;1735677;82;21026;-50
2021/10/12 03:06:55;;;;;;;30.35;20.90;;;;;;;15.37;55.24;101389.82;1735115;82;21015;-49
2021/10/12 03:09:22;;;;;;;29.10;20.10;;;;;;;15.38;55.26;101390.69;1735121;82;21006;-50
2021/10/12 03:11:48;;;;;;;30.43;20.27;;;;;;;15.38;55.27;101386.75;1735920;82;21011;-50
2021/10/12 03:14:15;;;;;;;31.70;21.82;;;;;;;15.37;55.28;101391.61;1734000;82;21018;-50
2021/10/12 03:16:42;;;;;;;34.73;20.45;;;;;;;15.36;55.28;101383.32;1728414;82;21479;-48
2021/10/12 03:19:11;;;;;;;29.45;18.67;;;;;;;15.36;55.28;101378.95;1734554;82;21006;-48
2021/10/12 03:21:43;;;;;;;27.48;19.48;;;;;;;15.36;55.29;101379.39;1735552;82;21495;-50
2021/10/12 03:24:07;;;;;;;28.32;18.62;;;;;;;15.34;55.31;101375.95;1732817;82;21006;-50
2021/10/12 03:26:34;;;;;;;29.72;19.62;;;;;;;15.33;55.38;101373.78;1737361;82;21015;-48
2021/10/12 03:29:01;;;;;;;30.32;18.57;;;;;;;15.32;55.44;101370.77;1737908;82;20995;-49
2021/10/12 03:31:27;;;;;;;31.35;18.80;;;;;;;15.33;55.55;101365.08;1737037;82;21519;-48
2021/10/12 03:33:54;;;;;;;28.32;20.10;;;;;;;15.34;55.67;101365.47;1727251;82;21058;-50
2021/10/12 03:36:20;;;;;;;25.95;19.05;;;;;;;15.34;55.79;101366.33;1727356;82;21547;-49
2021/10/12 03:38:47;;;;;;;26.82;17.62;;;;;;;15.34;55.89;101364.16;1726992;82;21023;-50
2021/10/12 03:41:14;;;;;;;30.62;18.37;;;;;;;15.34;55.92;101370.71;1727272;82;21522;-51
2021/10/12 03:43:40;;;;;;;26.33;19.00;;;;;;;15.34;55.89;101368.09;1728185;82;20987;-49
2021/10/12 03:46:07;;;;;;;31.02;18.98;;;;;;;15.33;55.88;101366.39;1726326;82;21660;-49
2021/10/12 03:48:33;;;;;;;25.72;17.85;;;;;;;15.33;55.88;101354.11;1719226;82;21074;-49
2021/10/12 03:51:01;;;;;;;28.32;18.60;;;;;;;15.34;55.89;101349.73;1727902;82;21031;-49
2021/10/12 03:53:27;;;;;;;28.45;18.23;;;;;;;15.33;55.92;101355.91;1730629;82;21546;-48
2021/10/12 03:55:54;;;;;;;26.62;18.87;;;;;;;15.35;56.03;101359.34;1730707;82;21043;-50
2021/10/12 03:58:20;;;;;;;32.75;19.00;;;;;;;15.35;56.08;101356.71;1728129;82;21074;-49
2021/10/12 04:00:48;;;;;;;27.30;18.20;;;;;;;15.35;55.94;101362.79;1729331;82;21034;-49
2021/10/12 04:03:14;;;;;;;34.35;17.75;;;;;;;15.33;56.08;101369.84;1729450;82;21010;-49
2021/10/12 04:05:41;;;;;;;26.05;18.27;;;;;;;15.32;56.23;101367.28;1730834;82;21488;-49
2021/10/12 04:08:08;;;;;;;25.40;17.95;;;;;;;15.33;56.33;101363.77;1730414;82;21027;-50
2021/10/12 04:10:35;;;;;;;29.95;18.65;;;;;;;15.34;56.35;101365.47;1728106;82;21062;-49
2021/10/12 04:13:03;;;;;;;27.10;17.65;;;;;;;15.36;56.29;101363.66;1726936;82;21079;-50
2021/10/12 04:15:32;;;;;;;26.62;18.67;;;;;;;15.37;56.26;101353.59;1718263;82;21059;-48
2021/10/12 04:17:59;;;;;;;30.90;18.30;;;;;;;15.37;56.21;101349.17;1730556;82;21023;-49
2021/10/12 04:20:27;;;;;;;31.30;18.25;;;;;;;15.36;56.09;101344.86;1723941;82;21063;-50
2021/10/12 04:22:55;;;;;;;31.52;17.67;;;;;;;15.36;56.10;101338.74;1726935;82;21031;-49
2021/10/12 04:25:22;;;;;;;28.30;19.37;;;;;;;15.35;56.07;101349.67;1727875;82;21002;-49
2021/10/12 04:27:51;;;;;;;25.35;17.85;;;;;;;15.34;56.16;101352.36;1728735;82;21003;-50
2021/10/12 04:30:17;;;;;;;32.50;17.85;;;;;;;15.33;56.29;101350.66;1730651;82;21022;-48
2021/10/12 04:32:44;;;;;;;29.35;17.35;;;;;;;15.33;56.30;101341.00;1735011;82;21046;-49
2021/10/12 04:35:12;;;;;;;24.98;17.73;;;;;;;15.34;56.35;101337.94;1736178;82;21116;-48
2021/10/12 04:37:39;;;;;;;24.60;17.45;;;;;;;15.34;56.24;101334.87;1736148;82;21027;-50
2021/10/12 04:40:07;;;;;;;26.27;17.98;;;;;;;15.34;56.24;101337.48;1727582;82;21491;-49
2021/10/12 04:42:35;;;;;;;23.70;17.95;;;;;;;15.35;56.22;101331.80;1735360;82;21054;-49
2021/10/12 04:45:03;;;;;;;29.72;18.45;;;;;;;15.36;56.17;101337.43;1733892;82;20991;-49
2021/10/12 04:47:30;;;;;;;26.65;17.55;;;;;;;15.35;56.10;101327.87;1738588;82;21534;-50
2021/10/12 04:49:57;;;;;;;26.75;16.90;;;;;;;15.38;56.02;101334.31;1721135;83;21031;-48
2021/10/12 04:52:23;;;;;;;24.27;17.92;;;;;;;15.38;55.96;101329.06;1738609;82;21483;-50
2021/10/12 04:54:50;;;;;;;29.45;18.55;;;;;;;15.38;55.76;101333.00;1738509;82;21035;-49
2021/10/12 04:57:16;;;;;;;29.15;17.00;;;;;;;15.37;55.76;101333.92;1736335;82;21159;-50
2021/10/12 04:59:44;;;;;;;25.75;17.57;;;;;;;15.37;55.78;101339.16;1735598;82;21039;-50
2021/10/12 05:02:11;;;;;;;31.62;17.40;;;;;;;15.39;55.82;101354.39;1735258;82;21547;-50
2021/10/12 05:04:37;;;;;;;24.05;17.87;;;;;;;15.39;55.88;101353.08;1735676;82;21030;-48
2021/10/12 05:07:04;;;;;;;24.95;17.52;;;;;;;15.42;55.89;101350.34;1735413;82;21455;-50
2021/10/12 05:09:30;;;;;;;26.17;17.80;;;;;;;15.43;55.89;101352.11;1738541;82;21054;-49
2021/10/12 05:11:57;;;;;;;25.97;17.80;;;;;;;15.45;55.91;101354.23;1738533;82;21503;-49
2021/10/12 05:14:24;;;;;;;25.10;16.93;;;;;;;15.46;55.98;101346.75;1734519;82;21081;-50
2021/10/12 05:16:54;;;;;;;25.43;18.20;;;;;;;15.48;56.29;101344.94;1725356;82;21027;-50
2021/10/12 05:19:20;;;;;;;26.77;17.15;;;;;;;15.50;56.57;101346.22;1735992;82;21049;-50
2021/10/12 05:21:48;;;;;;;24.90;18.05;;;;;;;15.49;56.74;101337.48;1735614;82;20986;-48
2021/10/12 05:24:15;;;;;;;32.55;17.25;;;;;;;15.49;56.90;101344.05;1734489;82;20959;-51
2021/10/12 05:26:41;;;;;;;29.10;17.82;;;;;;;15.48;57.08;101348.87;1738503;82;21050;-49
2021/10/12 05:29:12;;;;;;;28.77;17.70;;;;;;;15.49;57.20;101354.53;1738608;82;21487;-50
2021/10/12 05:31:40;;;;;;;23.18;16.97;;;;;;;15.49;57.28;101354.53;1737746;82;21097;-49
2021/10/12 05:34:07;;;;;;;24.35;17.48;;;;;;;15.51;57.35;101361.03;1727285;82;21555;-50
2021/10/12 05:36:35;;;;;;;23.70;16.97;;;;;;;15.50;57.34;101361.95;1726867;82;21047;-50
2021/10/12 05:39:01;;;;;;;23.52;17.23;;;;;;;15.50;57.33;101362.79;1727697;82;21460;-49
2021/10/12 05:41:28;;;;;;;25.68;18.12;;;;;;;15.51;57.35;101359.27;1727445;82;21550;-50
2021/10/12 05:43:56;;;;;;;24.57;16.73;;;;;;;15.51;57.29;101360.59;1727470;82;21051;-50
2021/10/12 05:46:23;;;;;;;26.85;18.65;;;;;;;15.53;57.22;101360.08;1727338;82;21067;-50
2021/10/12 05:48:50;;;;;;;26.73;17.95;;;;;;;15.54;57.21;101360.47;1726407;82;21072;-50
2021/10/12 05:51:21;;;;;;;23.52;17.85;;;;;;;15.52;57.20;101354.42;1719861;82;21026;-49
2021/10/12 05:53:48;;;;;;;24.85;18.10;;;;;;;15.54;57.33;101357.02;1724502;82;21038;-50
2021/10/12 05:58:49;;;;;;;23.00;17.40;;;;;;;15.54;57.18;101349.98;1730637;82;21562;-50
2021/10/12 06:01:14;;;;;;;26.52;18.62;;;;;;;15.54;57.16;101352.60;1730321;82;21046;-50
2021/10/12 06:03:41;;;;;;;25.82;17.65;;;;;;;15.54;57.18;101352.60;1728416;82;21596;-48
2021/10/12 06:06:11;;;;;;;24.10;17.42;;;;;;;15.56;57.21;101353.41;1728972;82;21554;-50
2021/10/12 06:08:41;;;;;;;24.92;18.17;;;;;;;15.58;57.16;101354.22;1729660;82;21522;-49
2021/10/12 06:11:09;;;;;;;23.92;17.62;;;;;;;15.61;57.25;101350.20;1726285;82;21093;-49
2021/10/12 06:13:39;;;;;;;30.20;18.30;;;;;;;15.63;57.30;101353.62;1732359;82;21511;-50
2021/10/12 06:16:06;;;;;;;24.43;17.73;;;;;;;15.62;57.34;101347.95;1717214;82;21035;-50
2021/10/12 06:18:34;;;;;;;25.30;17.98;;;;;;;15.66;57.23;101348.73;1726336;82;21050;-50
2021/10/12 06:21:01;;;;;;;24.00;18.32;;;;;;;15.68;57.15;101342.54;1730371;82;21043;-50
2021/10/12 06:23:27;;;;;;;29.35;18.65;;;;;;;15.69;57.23;101335.05;1730254;82;21078;-48
2021/10/12 06:25:54;;;;;;;23.30;17.37;;;;;;;15.71;57.25;101327.98;1727309;82;21019;-49
2021/10/12 06:28:21;;;;;;;30.85;19.12;;;;;;;15.72;57.36;101327.09;1727293;82;21018;-51
2021/10/12 06:30:48;;;;;;;27.25;19.85;;;;;;;15.74;57.50;101322.66;1723077;82;21046;-50
2021/10/12 06:33:14;;;;;;;45.23;20.23;;;;;;;15.76;57.53;101324.77;1728395;82;21050;-50
2021/10/12 06:35:41;;;;;;;26.40;19.05;;;;;;;15.78;57.49;101326.89;1735126;82;21046;-50
2021/10/12 06:38:08;;;;;;;29.37;19.42;;;;;;;15.81;57.44;101333.33;1724354;82;20971;-52
2021/10/12 06:40:35;;;;;;;28.25;20.08;;;;;;;15.85;57.39;101332.31;1734479;82;21030;-51
2021/10/12 06:43:03;;;;;;;29.55;21.00;;;;;;;15.88;57.22;101329.59;1733466;82;20991;-50
2021/10/12 06:45:31;;;;;;;33.40;21.33;;;;;;;15.93;57.13;101336.00;1729333;82;20979;-51
2021/10/12 06:47:58;;;;;;;32.78;22.48;;;;;;;15.97;57.06;101336.30;1727375;82;20995;-52
2021/10/12 06:50:24;;;;;;;32.28;21.50;;;;;;;15.99;56.96;101342.36;1722510;82;21007;-51
2021/10/12 06:52:51;;;;;;;26.55;21.00;;;;;;;16.00;56.99;101344.91;1731184;82;21043;-53
2021/10/12 06:55:18;;;;;;;30.55;21.00;;;;;;;16.03;57.02;101342.16;1729142;82;21002;-50
2021/10/12 06:57:44;;;;;;;28.67;20.43;;;;;;;16.04;56.90;101341.27;1735880;82;21039;-51
2021/10/12 07:00:13;;;;;;;28.30;21.00;;;;;;;16.03;56.76;101341.34;1727368;82;21109;-50
2021/10/12 07:02:41;;;;;;;27.98;20.08;;;;;;;16.00;56.90;101337.04;1726869;82;21010;-52
2021/10/12 07:05:09;;;;;;;24.75;20.65;;;;;;;16.01;56.92;101337.91;1731141;82;20998;-51
2021/10/12 07:07:36;;;;;;;26.20;19.62;;;;;;;16.03;56.84;101332.14;1737421;82;21026;-50
2021/10/12 07:10:06;;;;;;;32.08;20.23;;;;;;;16.04;56.88;101331.22;1731140;82;21038;-50
2021/10/12 07:12:33;;;;;;;37.25;21.17;;;;;;;16.07;56.91;101335.89;1731074;82;21324;-51
2021/10/12 07:15:00;;;;;;;29.27;21.17;;;;;;;16.10;56.83;101335.80;1725203;82;20955;-50
2021/10/12 07:17:28;;;;;;;31.07;19.70;;;;;;;16.12;56.98;101336.61;1729941;82;21516;-52
2021/10/12 07:19:55;;;;;;;31.95;20.48;;;;;;;16.17;57.10;101345.64;1733649;82;21015;-49
2021/10/12 07:22:23;;;;;;;25.43;20.50;;;;;;;16.18;56.94;101344.27;1735472;82;20991;-48
2021/10/12 07:24:51;;;;;;;33.85;22.07;;;;;;;16.20;56.94;101347.69;1729234;82;20940;-50
2021/10/12 07:27:18;;;;;;;24.32;19.57;;;;;;;16.20;56.84;101343.75;1726533;82;21002;-50
2021/10/12 07:29:46;;;;;;;26.93;19.32;;;;;;;16.21;56.67;101344.17;1727477;82;21558;-50
2021/10/12 07:32:16;;;;;;;28.20;19.70;;;;;;;16.20;56.59;101335.88;1728855;82;20979;-49
2021/10/12 07:34:43;;;;;;;25.72;20.17;;;;;;;16.21;56.59;101340.23;1729426;82;21053;-50
2021/10/12 07:37:09;;;;;;;28.70;19.37;;;;;;;16.22;56.68;101344.55;1732116;82;21519;-54
2021/10/12 07:39:36;;;;;;;24.98;18.67;;;;;;;16.26;56.70;101342.22;1729179;82;21027;-50
2021/10/12 07:42:05;;;;;;;27.00;17.95;;;;;;;16.29;56.43;101341.27;1733732;82;21495;-49
2021/10/12 07:44:32;;;;;;;22.65;18.05;;;;;;;16.28;56.10;101339.09;1727032;82;21023;-50
2021/10/12 07:46:59;;;;;;;27.37;19.17;;;;;;;16.27;55.97;101341.33;1728713;82;21474;-50
2021/10/12 07:49:26;;;;;;;29.27;18.30;;;;;;;16.23;56.02;101331.84;1727462;82;21014;-51
2021/10/12 07:51:53;;;;;;;31.35;19.73;;;;;;;16.22;56.14;101327.48;1729302;82;20975;-51
2021/10/12 07:54:26;;;;;;;26.48;19.40;;;;;;;16.22;56.39;101324.86;1696926;84;21191;-50
2021/10/12 07:56:48;;;;;;;25.72;19.05;;;;;;;16.26;56.40;101324.29;1670734;85;21051;-50
2021/10/12 07:59:18;;;;;;;26.73;18.92;;;;;;;16.30;56.39;101312.31;1733128;82;21050;-50
2021/10/12 08:01:43;;;;;;;28.23;19.90;;;;;;;16.36;56.43;101315.20;1730495;82;21014;-50
2021/10/12 08:04:10;;;;;;;33.40;20.60;;;;;;;16.42;56.40;101313.66;1733387;82;21022;-50
2021/10/12 08:06:37;;;;;;;22.75;20.00;;;;;;;16.50;56.38;101310.77;1736609;82;21042;-50
2021/10/12 08:09:04;;;;;;;32.20;21.60;;;;;;;16.53;56.36;101306.24;1739598;82;21523;-50
2021/10/12 08:11:30;;;;;;;33.00;20.57;;;;;;;16.59;56.21;101318.31;1733664;82;20994;-50
2021/10/12 08:16:30;;;;;;;30.97;19.73;;;;;;;16.63;56.07;101307.61;1609716;88;21049;-51
2021/10/12 08:18:59;;;;;;;27.82;20.08;;;;;;;16.65;56.13;101303.63;1609379;89;21043;-51
2021/10/12 08:21:28;;;;;;;25.00;18.87;;;;;;;16.66;56.11;101296.12;1547167;92;21087;-50
2021/10/12 08:23:57;;;;;;;29.18;18.15;;;;;;;16.63;56.01;101283.95;1547090;92;21494;-49
2021/10/12 08:26:28;;;;;;;27.95;18.55;;;;;;;16.61;56.10;101278.39;1546577;92;21037;-49
2021/10/12 08:28:55;;;;;;;30.32;20.52;;;;;;;16.57;56.14;101269.74;1551086;92;21669;-49
2021/10/12 08:31:22;;;;;;;27.90;18.48;;;;;;;16.58;56.44;101267.98;1551887;91;21149;-50
2021/10/12 08:33:49;;;;;;;32.95;18.87;;;;;;;16.63;56.56;101262.11;1548151;92;21549;-50
2021/10/12 08:36:16;;;;;;;27.80;18.15;;;;;;;16.67;56.69;101261.07;1553333;92;21105;-50
2021/10/12 08:38:44;;;;;;;26.93;18.95;;;;;;;16.73;56.81;101258.20;1548769;92;21609;-51
2021/10/12 08:41:11;;;;;;;24.05;17.05;;;;;;;16.79;56.83;101260.59;1553192;92;21036;-51
2021/10/12 08:43:39;;;;;;;29.77;19.12;;;;;;;16.83;56.65;101255.16;1534177;92;21546;-53
2021/10/12 08:46:06;;;;;;;28.20;20.25;;;;;;;16.86;56.41;101256.78;1553835;92;21590;-49
2021/10/12 08:48:34;;;;;;;26.97;18.55;;;;;;;16.85;56.30;101255.95;1553856;92;21077;-52
2021/10/12 08:51:04;;;;;;;23.95;18.17;;;;;;;16.84;56.55;101248.11;1554075;92;21103;-50
2021/10/12 08:53:32;;;;;;;26.65;18.30;;;;;;;16.88;56.63;101244.44;1554012;92;21066;-50
2021/10/12 08:55:59;;;;;;;22.70;17.80;;;;;;;16.95;56.68;101245.92;1553870;91;21609;-51
2021/10/12 08:58:26;;;;;;;27.25;18.57;;;;;;;17.00;56.76;101243.98;1553851;92;21049;-50
2021/10/12 09:01:05;;;;;;;24.87;17.77;;;;;;;17.07;56.79;101233.59;1553741;92;21565;-51
2021/10/12 09:03:58;;;;;;;24.12;16.82;;;;;;;17.14;56.66;101232.44;1551540;91;21623;-50
2021/10/12 09:06:34;;;;;;;21.25;16.60;;;;;;;17.21;56.55;101222.04;1543879;92;21076;-52
2021/10/12 09:09:05;;;;;;;17.67;15.35;;;;;;;17.28;56.50;101224.83;1551651;92;21095;-51
2021/10/12 09:11:35;;;;;;;19.80;15.38;;;;;;;17.30;56.38;101221.67;1514251;94;21576;-52
2021/10/12 09:14:11;;;;;;;20.82;15.15;;;;;;;17.34;56.47;101217.98;1573302;91;21078;-50
2021/10/12 09:16:42;;;;;;;22.10;14.58;;;;;;;17.38;56.60;101215.63;1588162;89;21107;-51
2021/10/12 09:19:17;;;;;;;18.17;12.55;;;;;;;17.42;56.82;101210.63;1641265;85;21056;-52
2021/10/12 09:21:47;;;;;;;17.70;12.65;;;;;;;17.48;57.05;101215.63;1652735;85;21080;-51
2021/10/12 09:24:23;;;;;;;16.93;12.50;;;;;;;17.55;57.20;101217.11;1655093;85;21180;-51
2021/10/12 09:27:04;;;;;;;16.87;11.97;;;;;;;17.62;57.32;101213.28;1651204;85;21101;-51
2021/10/12 09:29:36;;;;;;;14.47;11.93;;;;;;;17.72;57.49;101210.64;1651659;85;21086;-52
2021/10/12 09:32:02;;;;;;;;;;;;;;;17.84;57.65;101200.91;1654310;87;21065;-51
2021/10/12 09:34:30;;;;;;;12.53;10.48;;;;;;;17.97;57.73;101202.98;1654736;85;20110;-52
2021/10/12 09:36:58;;;;;;;16.67;12.63;;;;;;;18.09;57.58;101207.70;1655286;85;21068;-50
2021/10/12 09:39:42;;;;;;;19.02;12.50;;;;;;;18.21;57.39;101204.50;1653558;85;21112;-52
2021/10/12 09:42:12;;;;;;;15.03;12.28;;;;;;;18.31;57.09;101199.20;1567278;90;21114;-51
2021/10/12 09:44:57;;;;;;;14.83;12.53;;;;;;;18.39;56.77;101193.10;1542738;92;21598;-51
2021/10/12 09:47:25;;;;;;;14.03;12.33;;;;;;;18.47;56.42;101190.99;1540673;93;21147;-51
2021/10/12 09:50:14;;;;;;;19.35;13.55;;;;;;;18.53;56.33;101188.92;1541432;93;21113;-51
2021/10/12 09:52:45;;;;;;;16.48;13.00;;;;;;;18.58;56.25;101186.94;1520366;93;21607;-51
2021/10/12 09:55:11;;;;;;;15.83;12.93;;;;;;;18.65;56.03;101186.16;1517396;94;21178;-52
2021/10/12 09:57:39;;;;;;;16.17;12.93;;;;;;;18.68;55.91;101170.20;1500088;94;21134;-53
2021/10/12 10:00:08;;;;;;;17.90;13.65;;;;;;;18.72;55.87;101173.08;1520997;94;21094;-52
2021/10/12 10:02:42;;;;;;;20.68;13.22;;;;;;;18.77;55.82;101180.77;1521461;94;21138;-49
2021/10/12 10:05:08;;;;;;;18.27;13.75;;;;;;;18.81;55.75;101180.56;1521301;94;21070;-51
2021/10/12 10:07:42;;;;;;;16.85;13.03;;;;;;;18.83;55.83;101175.20;1515615;94;21581;-51
2021/10/12 10:10:11;;;;;;;19.90;13.20;;;;;;;18.85;55.80;101172.89;1513369;95;21633;-50
2021/10/12 10:12:39;;;;;;;17.25;12.98;;;;;;;18.87;55.68;101172.34;1496432;95;21625;-55
2021/10/12 10:15:07;;;;;;;16.17;12.47;;;;;;;18.87;55.60;101163.58;1514049;94;21059;-49
2021/10/12 10:17:34;;;;;;;14.33;12.65;;;;;;;18.87;55.74;101164.44;1545971;92;21051;-51
2021/10/12 10:20:07;;;;;;;14.20;12.70;;;;;;;18.87;55.78;101152.56;1552872;92;21073;-51
2021/10/12 10:22:43;;;;;;;14.60;12.15;;;;;;;18.89;55.78;101154.66;1551695;91;21044;-51
2021/10/12 10:25:34;;;;;;;12.85;11.53;;;;;;;18.90;55.85;101148.44;1541564;92;21078;-50
2021/10/12 10:28:23;;;;;;;18.73;13.22;;;;;;;18.91;55.67;101140.94;1551749;91;21638;-48
2021/10/12 10:31:01;;;;;;;19.40;12.73;;;;;;;18.90;55.74;101139.22;1497023;95;21075;-51
2021/10/12 10:33:34;;;;;;;17.65;12.47;;;;;;;18.91;55.80;101133.03;1503519;95;21171;-53
2021/10/12 10:36:04;;;;;;;14.40;12.30;;;;;;;18.93;55.77;101128.98;1451326;96;21197;-50
2021/10/12 10:38:43;;;;;;;14.00;10.35;;;;;;;18.91;55.77;101122.94;1469564;98;21127;-52
2021/10/12 10:41:15;;;;;;;13.10;10.98;;;;;;;18.90;55.77;101119.44;1478378;96;21533;-51
2021/10/12 10:44:04;;;;;;;12.18;10.00;;;;;;;18.91;55.93;101118.52;1492644;96;21141;-48
2021/10/12 10:46:35;;;;;;;11.18;9.50;;;;;;;18.91;55.79;101118.52;1552786;92;21533;-49
2021/10/12 10:49:23;;;;;;;11.10;9.60;;;;;;;18.90;55.77;101116.80;1556155;92;21553;-49
2021/10/12 10:52:02;;;;;;;12.88;9.13;;;;;;;18.89;55.74;101113.80;1556446;92;21549;-49
2021/10/12 10:54:44;;;;;;;9.60;8.60;;;;;;;18.90;55.76;101104.94;1556512;92;21541;-53
2021/10/12 10:57:18;;;;;;;;;;;;;;;18.89;55.67;101103.25;1558844;92;21205;-49
2021/10/12 10:59:46;;;;;;;10.25;8.20;;;;;;;18.89;55.55;101104.56;1556393;92;20399;-51
2021/10/12 11:02:36;;;;;;;12.05;8.85;;;;;;;18.89;55.57;101096.66;1556518;92;21078;-53
2021/10/12 11:05:04;;;;;;;9.45;8.50;;;;;;;18.91;55.51;101089.52;1556380;91;21078;-49
2021/10/12 11:07:31;;;;;;;9.73;8.45;;;;;;;18.93;55.43;101085.02;1628805;82;21022;-52
2021/10/12 11:09:59;;;;;;;9.75;8.73;;;;;;;18.93;55.45;101087.66;1732071;82;21535;-51
2021/10/12 11:12:29;;;;;;;10.60;9.08;;;;;;;18.96;55.35;101081.37;1737460;82;21022;-49
2021/10/12 11:15:08;;;;;;;10.20;8.33;;;;;;;18.97;55.50;101079.97;1726967;82;21593;-48
2021/10/12 11:17:36;;;;;;;11.75;8.50;;;;;;;19.01;55.59;101079.34;1727453;82;21042;-50
2021/10/12 11:20:07;;;;;;;13.65;8.58;;;;;;;19.10;55.54;101073.11;1729359;82;21019;-50
2021/10/12 11:22:40;;;;;;;10.48;9.20;;;;;;;19.20;55.45;101073.05;1721594;82;21008;-50